sensor_id;sensor_type;location;lat;lon;timestamp;P1;durP1;ratioP1;P2;durP2;ratioP2
30707;SDS011;17458;48.958;8.284;2023-02-15T00:02:06;117.97;;;38.27;;
30707;SDS011;17458;48.958;8.284;2023-02-15T00:04:50;96.60;;;38.00;;
30707;SDS011;17458;48.958;8.284;2023-02-15T00:07:33;95.70;;;37.50;;
30707;SDS011;17458;48.958;8.284;2023-02-15T00:10:17;86.97;;;36.77;;
30707;SDS011;17458;48.958;8.284;2023-02-15T00:13:02;97.20;;;36.67;;
30707;SDS011;17458;48.958;8.284;2023-02-15T00:15:46;85.57;;;35.10;;
30707;SDS011;17458;48.958;8.284;2023-02-15T00:18:30;76.07;;;33.27;;
30707;SDS011;17458;48.958;8.284;2023-02-15T00:21:14;69.97;;;34.30;;
30707;SDS011;17458;48.958;8.284;2023-02-15T00:23:59;73.37;;;31.33;;
30707;SDS011;17458;48.958;8.284;2023-02-15T00:26:45;77.53;;;34.03;;
30707;SDS011;17458;48.958;8.284;2023-02-15T00:29:30;71.13;;;31.13;;
30707;SDS011;17458;48.958;8.284;2023-02-15T00:32:15;71.90;;;31.13;;
30707;SDS011;17458;48.958;8.284;2023-02-15T00:34:59;70.13;;;30.90;;
30707;SDS011;17458;48.958;8.284;2023-02-15T00:37:43;81.47;;;28.77;;
30707;SDS011;17458;48.958;8.284;2023-02-15T00:40:26;60.20;;;30.00;;
30707;SDS011;17458;48.958;8.284;2023-02-15T00:43:12;66.97;;;26.47;;
30707;SDS011;17458;48.958;8.284;2023-02-15T00:45:59;70.97;;;29.27;;
30707;SDS011;17458;48.958;8.284;2023-02-15T00:48:44;68.23;;;28.20;;
30707;SDS011;17458;48.958;8.284;2023-02-15T00:51:28;61.30;;;30.30;;
30707;SDS011;17458;48.958;8.284;2023-02-15T00:54:12;58.87;;;27.60;;
30707;SDS011;17458;48.958;8.284;2023-02-15T00:56:56;78.67;;;27.00;;
30707;SDS011;17458;48.958;8.284;2023-02-15T00:59:40;54.30;;;28.17;;
30707;SDS011;17458;48.958;8.284;2023-02-15T01:02:24;76.10;;;27.87;;
30707;SDS011;17458;48.958;8.284;2023-02-15T01:05:08;77.03;;;27.23;;
30707;SDS011;17458;48.958;8.284;2023-02-15T01:07:52;62.87;;;27.27;;
30707;SDS011;17458;48.958;8.284;2023-02-15T01:10:36;67.43;;;28.40;;
30707;SDS011;17458;48.958;8.284;2023-02-15T01:13:20;72.03;;;29.17;;
30707;SDS011;17458;48.958;8.284;2023-02-15T01:16:04;83.67;;;31.03;;
30707;SDS011;17458;48.958;8.284;2023-02-15T01:18:49;73.83;;;29.77;;
30707;SDS011;17458;48.958;8.284;2023-02-15T01:21:33;90.33;;;28.67;;
30707;SDS011;17458;48.958;8.284;2023-02-15T01:24:18;80.40;;;31.40;;
30707;SDS011;17458;48.958;8.284;2023-02-15T01:27:01;82.17;;;29.57;;
30707;SDS011;17458;48.958;8.284;2023-02-15T01:29:45;73.60;;;32.03;;
30707;SDS011;17458;48.958;8.284;2023-02-15T01:32:32;69.13;;;29.27;;
30707;SDS011;17458;48.958;8.284;2023-02-15T01:35:16;77.27;;;31.00;;
30707;SDS011;17458;48.958;8.284;2023-02-15T01:37:59;75.20;;;28.87;;
30707;SDS011;17458;48.958;8.284;2023-02-15T01:40:44;93.77;;;28.80;;
30707;SDS011;17458;48.958;8.284;2023-02-15T01:43:39;113.93;;;29.90;;
30707;SDS011;17458;48.958;8.284;2023-02-15T01:46:26;118.03;;;28.60;;
30707;SDS011;17458;48.958;8.284;2023-02-15T01:49:18;84.13;;;30.03;;
30707;SDS011;17458;48.958;8.284;2023-02-15T01:52:04;56.37;;;26.07;;
30707;SDS011;17458;48.958;8.284;2023-02-15T01:54:48;51.73;;;25.27;;
30707;SDS011;17458;48.958;8.284;2023-02-15T01:57:33;59.00;;;26.17;;
30707;SDS011;17458;48.958;8.284;2023-02-15T02:00:17;55.47;;;24.97;;
30707;SDS011;17458;48.958;8.284;2023-02-15T02:03:05;63.00;;;25.77;;
30707;SDS011;17458;48.958;8.284;2023-02-15T02:05:49;51.20;;;24.77;;
30707;SDS011;17458;48.958;8.284;2023-02-15T02:08:33;56.20;;;25.57;;
30707;SDS011;17458;48.958;8.284;2023-02-15T02:11:17;54.40;;;26.60;;
30707;SDS011;17458;48.958;8.284;2023-02-15T02:14:04;56.10;;;24.93;;
30707;SDS011;17458;48.958;8.284;2023-02-15T02:16:57;57.80;;;25.10;;
30707;SDS011;17458;48.958;8.284;2023-02-15T02:29:29;52.20;;;25.03;;
30707;SDS011;17458;48.958;8.284;2023-02-15T02:38:28;53.33;;;22.57;;
30707;SDS011;17458;48.958;8.284;2023-02-15T02:41:22;51.33;;;24.93;;
30707;SDS011;17458;48.958;8.284;2023-02-15T02:44:13;54.10;;;23.90;;
30707;SDS011;17458;48.958;8.284;2023-02-15T02:47:28;59.97;;;23.27;;
30707;SDS011;17458;48.958;8.284;2023-02-15T02:50:29;62.07;;;22.00;;
30707;SDS011;17458;48.958;8.284;2023-02-15T02:53:13;59.50;;;22.97;;
30707;SDS011;17458;48.958;8.284;2023-02-15T02:56:17;47.90;;;21.33;;
30707;SDS011;17458;48.958;8.284;2023-02-15T02:59:10;58.43;;;23.07;;
30707;SDS011;17458;48.958;8.284;2023-02-15T03:02:16;48.20;;;21.73;;
30707;SDS011;17458;48.958;8.284;2023-02-15T03:05:06;54.77;;;23.93;;
30707;SDS011;17458;48.958;8.284;2023-02-15T03:07:55;44.30;;;22.73;;
30707;SDS011;17458;48.958;8.284;2023-02-15T03:10:40;51.20;;;23.63;;
30707;SDS011;17458;48.958;8.284;2023-02-15T03:13:25;44.30;;;22.37;;
30707;SDS011;17458;48.958;8.284;2023-02-15T03:16:11;48.40;;;23.77;;
30707;SDS011;17458;48.958;8.284;2023-02-15T03:19:10;56.10;;;22.87;;
30707;SDS011;17458;48.958;8.284;2023-02-15T03:22:06;44.73;;;20.63;;
30707;SDS011;17458;48.958;8.284;2023-02-15T03:25:04;47.20;;;23.50;;
30707;SDS011;17458;48.958;8.284;2023-02-15T03:27:54;43.50;;;22.87;;
30707;SDS011;17458;48.958;8.284;2023-02-15T03:30:43;45.50;;;22.40;;
30707;SDS011;17458;48.958;8.284;2023-02-15T03:33:31;53.40;;;22.60;;
30707;SDS011;17458;48.958;8.284;2023-02-15T03:36:20;39.58;;;20.15;;
30707;SDS011;17458;48.958;8.284;2023-02-15T03:42:10;40.17;;;19.00;;
30707;SDS011;17458;48.958;8.284;2023-02-15T03:47:55;46.23;;;20.47;;
30707;SDS011;17458;48.958;8.284;2023-02-15T03:50:41;38.57;;;19.87;;
30707;SDS011;17458;48.958;8.284;2023-02-15T03:53:44;47.47;;;22.53;;
30707;SDS011;17458;48.958;8.284;2023-02-15T03:56:31;53.03;;;22.00;;
30707;SDS011;17458;48.958;8.284;2023-02-15T03:59:18;39.90;;;21.20;;
30707;SDS011;17458;48.958;8.284;2023-02-15T04:02:34;40.50;;;19.47;;
30707;SDS011;17458;48.958;8.284;2023-02-15T04:05:23;50.23;;;20.97;;
30707;SDS011;17458;48.958;8.284;2023-02-15T04:08:07;47.93;;;21.27;;
30707;SDS011;17458;48.958;8.284;2023-02-15T04:10:52;43.10;;;20.77;;
30707;SDS011;17458;48.958;8.284;2023-02-15T04:13:36;41.67;;;21.83;;
30707;SDS011;17458;48.958;8.284;2023-02-15T04:16:20;50.47;;;21.40;;
30707;SDS011;17458;48.958;8.284;2023-02-15T04:19:04;49.23;;;21.40;;
30707;SDS011;17458;48.958;8.284;2023-02-15T04:22:06;48.03;;;23.10;;
30707;SDS011;17458;48.958;8.284;2023-02-15T04:25:09;43.70;;;24.97;;
30707;SDS011;17458;48.958;8.284;2023-02-15T04:27:56;49.07;;;24.10;;
30707;SDS011;17458;48.958;8.284;2023-02-15T04:30:40;44.13;;;21.50;;
30707;SDS011;17458;48.958;8.284;2023-02-15T04:33:24;50.90;;;22.17;;
30707;SDS011;17458;48.958;8.284;2023-02-15T04:36:08;50.07;;;23.60;;
30707;SDS011;17458;48.958;8.284;2023-02-15T04:38:52;41.30;;;22.77;;
30707;SDS011;17458;48.958;8.284;2023-02-15T04:41:36;50.90;;;24.20;;
30707;SDS011;17458;48.958;8.284;2023-02-15T04:44:20;55.83;;;23.53;;
30707;SDS011;17458;48.958;8.284;2023-02-15T04:47:04;43.30;;;22.77;;
30707;SDS011;17458;48.958;8.284;2023-02-15T04:49:48;39.50;;;20.53;;
30707;SDS011;17458;48.958;8.284;2023-02-15T04:52:32;51.10;;;22.27;;
30707;SDS011;17458;48.958;8.284;2023-02-15T04:55:15;42.50;;;22.20;;
30707;SDS011;17458;48.958;8.284;2023-02-15T04:57:59;56.63;;;21.75;;
30707;SDS011;17458;48.958;8.284;2023-02-15T05:00:43;52.37;;;20.07;;
30707;SDS011;17458;48.958;8.284;2023-02-15T05:03:28;44.87;;;22.40;;
30707;SDS011;17458;48.958;8.284;2023-02-15T05:06:12;45.90;;;22.00;;
30707;SDS011;17458;48.958;8.284;2023-02-15T05:08:56;51.33;;;20.33;;
30707;SDS011;17458;48.958;8.284;2023-02-15T05:11:42;46.40;;;21.27;;
30707;SDS011;17458;48.958;8.284;2023-02-15T05:14:26;53.57;;;25.53;;
30707;SDS011;17458;48.958;8.284;2023-02-15T05:17:10;54.97;;;23.23;;
30707;SDS011;17458;48.958;8.284;2023-02-15T05:19:54;57.57;;;23.90;;
30707;SDS011;17458;48.958;8.284;2023-02-15T05:22:38;60.97;;;22.97;;
30707;SDS011;17458;48.958;8.284;2023-02-15T05:25:21;54.20;;;23.03;;
30707;SDS011;17458;48.958;8.284;2023-02-15T05:28:25;49.10;;;22.83;;
30707;SDS011;17458;48.958;8.284;2023-02-15T05:31:16;43.73;;;21.07;;
30707;SDS011;17458;48.958;8.284;2023-02-15T05:34:01;53.07;;;21.00;;
30707;SDS011;17458;48.958;8.284;2023-02-15T05:36:45;50.57;;;22.43;;
30707;SDS011;17458;48.958;8.284;2023-02-15T05:39:29;61.27;;;21.93;;
30707;SDS011;17458;48.958;8.284;2023-02-15T05:42:13;49.97;;;22.20;;
30707;SDS011;17458;48.958;8.284;2023-02-15T05:44:57;49.93;;;22.43;;
30707;SDS011;17458;48.958;8.284;2023-02-15T05:47:41;41.03;;;21.43;;
30707;SDS011;17458;48.958;8.284;2023-02-15T05:50:26;61.27;;;21.67;;
30707;SDS011;17458;48.958;8.284;2023-02-15T05:53:11;47.97;;;22.53;;
30707;SDS011;17458;48.958;8.284;2023-02-15T05:55:55;60.37;;;22.70;;
30707;SDS011;17458;48.958;8.284;2023-02-15T05:58:42;40.27;;;21.33;;
30707;SDS011;17458;48.958;8.284;2023-02-15T06:01:26;51.53;;;21.37;;
30707;SDS011;17458;48.958;8.284;2023-02-15T06:04:10;61.20;;;23.93;;
30707;SDS011;17458;48.958;8.284;2023-02-15T06:06:54;52.03;;;22.17;;
30707;SDS011;17458;48.958;8.284;2023-02-15T06:09:38;39.83;;;19.77;;
30707;SDS011;17458;48.958;8.284;2023-02-15T06:12:22;41.27;;;20.17;;
30707;SDS011;17458;48.958;8.284;2023-02-15T06:15:06;48.47;;;19.83;;
30707;SDS011;17458;48.958;8.284;2023-02-15T06:17:50;48.57;;;19.10;;
30707;SDS011;17458;48.958;8.284;2023-02-15T06:20:34;36.20;;;19.20;;
30707;SDS011;17458;48.958;8.284;2023-02-15T06:23:18;33.23;;;17.40;;
30707;SDS011;17458;48.958;8.284;2023-02-15T06:26:02;44.97;;;19.17;;
30707;SDS011;17458;48.958;8.284;2023-02-15T06:28:46;37.23;;;17.07;;
30707;SDS011;17458;48.958;8.284;2023-02-15T06:31:30;30.93;;;17.10;;
30707;SDS011;17458;48.958;8.284;2023-02-15T06:34:14;46.57;;;17.47;;
30707;SDS011;17458;48.958;8.284;2023-02-15T06:36:58;34.03;;;16.50;;
30707;SDS011;17458;48.958;8.284;2023-02-15T06:39:42;39.00;;;18.03;;
30707;SDS011;17458;48.958;8.284;2023-02-15T06:42:26;35.40;;;15.63;;
30707;SDS011;17458;48.958;8.284;2023-02-15T06:45:10;36.92;;;17.60;;
30707;SDS011;17458;48.958;8.284;2023-02-15T06:47:54;33.93;;;15.63;;
30707;SDS011;17458;48.958;8.284;2023-02-15T06:50:38;41.63;;;18.07;;
30707;SDS011;17458;48.958;8.284;2023-02-15T06:53:23;35.27;;;17.93;;
30707;SDS011;17458;48.958;8.284;2023-02-15T06:56:07;27.50;;;15.57;;
30707;SDS011;17458;48.958;8.284;2023-02-15T06:58:52;31.37;;;16.63;;
30707;SDS011;17458;48.958;8.284;2023-02-15T07:01:36;40.63;;;16.93;;
30707;SDS011;17458;48.958;8.284;2023-02-15T07:04:21;33.73;;;17.57;;
30707;SDS011;17458;48.958;8.284;2023-02-15T07:07:09;41.63;;;18.43;;
30707;SDS011;17458;48.958;8.284;2023-02-15T07:09:54;31.20;;;17.60;;
30707;SDS011;17458;48.958;8.284;2023-02-15T07:12:38;51.17;;;19.20;;
30707;SDS011;17458;48.958;8.284;2023-02-15T07:15:26;37.67;;;17.33;;
30707;SDS011;17458;48.958;8.284;2023-02-15T07:18:10;38.70;;;19.03;;
30707;SDS011;17458;48.958;8.284;2023-02-15T07:20:54;46.40;;;19.13;;
30707;SDS011;17458;48.958;8.284;2023-02-15T07:23:38;45.20;;;19.70;;
30707;SDS011;17458;48.958;8.284;2023-02-15T07:26:23;37.73;;;18.73;;
30707;SDS011;17458;48.958;8.284;2023-02-15T07:29:07;42.60;;;19.03;;
30707;SDS011;17458;48.958;8.284;2023-02-15T07:31:51;39.07;;;18.37;;
30707;SDS011;17458;48.958;8.284;2023-02-15T07:34:35;39.03;;;20.67;;
30707;SDS011;17458;48.958;8.284;2023-02-15T07:37:19;37.90;;;18.90;;
30707;SDS011;17458;48.958;8.284;2023-02-15T07:40:03;45.40;;;19.30;;
30707;SDS011;17458;48.958;8.284;2023-02-15T07:42:47;41.00;;;19.37;;
30707;SDS011;17458;48.958;8.284;2023-02-15T07:45:31;41.37;;;18.77;;
30707;SDS011;17458;48.958;8.284;2023-02-15T07:48:15;36.17;;;17.57;;
30707;SDS011;17458;48.958;8.284;2023-02-15T07:51:03;35.17;;;18.17;;
30707;SDS011;17458;48.958;8.284;2023-02-15T07:53:49;53.95;;;19.77;;
30707;SDS011;17458;48.958;8.284;2023-02-15T07:56:38;38.22;;;17.90;;
30707;SDS011;17458;48.958;8.284;2023-02-15T07:59:22;34.72;;;17.30;;
30707;SDS011;17458;48.958;8.284;2023-02-15T08:02:12;44.53;;;19.02;;
30707;SDS011;17458;48.958;8.284;2023-02-15T08:04:56;42.22;;;18.92;;
30707;SDS011;17458;48.958;8.284;2023-02-15T08:07:40;42.38;;;19.48;;
30707;SDS011;17458;48.958;8.284;2023-02-15T08:10:24;40.33;;;18.17;;
30707;SDS011;17458;48.958;8.284;2023-02-15T08:13:28;40.45;;;19.75;;
30707;SDS011;17458;48.958;8.284;2023-02-15T08:16:12;46.58;;;19.85;;
30707;SDS011;17458;48.958;8.284;2023-02-15T08:18:56;37.40;;;19.92;;
30707;SDS011;17458;48.958;8.284;2023-02-15T08:21:43;41.78;;;19.38;;
30707;SDS011;17458;48.958;8.284;2023-02-15T08:24:29;39.33;;;20.38;;
30707;SDS011;17458;48.958;8.284;2023-02-15T08:27:15;52.72;;;22.38;;
30707;SDS011;17458;48.958;8.284;2023-02-15T08:29:59;46.00;;;21.02;;
30707;SDS011;17458;48.958;8.284;2023-02-15T08:32:43;40.85;;;19.27;;
30707;SDS011;17458;48.958;8.284;2023-02-15T08:35:26;50.28;;;21.15;;
30707;SDS011;17458;48.958;8.284;2023-02-15T08:38:10;52.22;;;23.15;;
30707;SDS011;17458;48.958;8.284;2023-02-15T08:40:54;45.88;;;21.27;;
30707;SDS011;17458;48.958;8.284;2023-02-15T08:43:38;44.08;;;21.80;;
30707;SDS011;17458;48.958;8.284;2023-02-15T08:46:24;45.05;;;22.00;;
30707;SDS011;17458;48.958;8.284;2023-02-15T08:49:10;47.47;;;22.83;;
30707;SDS011;17458;48.958;8.284;2023-02-15T08:51:56;48.45;;;22.30;;
30707;SDS011;17458;48.958;8.284;2023-02-15T08:54:40;49.60;;;21.17;;
30707;SDS011;17458;48.958;8.284;2023-02-15T08:57:24;44.05;;;21.52;;
30707;SDS011;17458;48.958;8.284;2023-02-15T09:00:08;44.05;;;22.27;;
30707;SDS011;17458;48.958;8.284;2023-02-15T09:02:53;55.22;;;22.77;;
30707;SDS011;17458;48.958;8.284;2023-02-15T09:05:37;46.53;;;22.45;;
30707;SDS011;17458;48.958;8.284;2023-02-15T09:08:21;43.55;;;22.65;;
30707;SDS011;17458;48.958;8.284;2023-02-15T09:11:06;72.60;;;24.80;;
30707;SDS011;17458;48.958;8.284;2023-02-15T09:13:55;111.03;;;27.40;;
30707;SDS011;17458;48.958;8.284;2023-02-15T09:16:42;54.05;;;22.05;;
30707;SDS011;17458;48.958;8.284;2023-02-15T09:19:29;44.40;;;21.60;;
30707;SDS011;17458;48.958;8.284;2023-02-15T09:22:13;47.70;;;21.65;;
30707;SDS011;17458;48.958;8.284;2023-02-15T09:24:57;47.38;;;21.45;;
30707;SDS011;17458;48.958;8.284;2023-02-15T09:27:41;47.78;;;19.58;;
30707;SDS011;17458;48.958;8.284;2023-02-15T09:30:26;37.42;;;20.52;;
30707;SDS011;17458;48.958;8.284;2023-02-15T09:33:09;45.78;;;20.95;;
30707;SDS011;17458;48.958;8.284;2023-02-15T09:35:53;42.33;;;19.98;;
30707;SDS011;17458;48.958;8.284;2023-02-15T09:38:37;36.55;;;19.95;;
30707;SDS011;17458;48.958;8.284;2023-02-15T09:41:44;37.17;;;19.50;;
30707;SDS011;17458;48.958;8.284;2023-02-15T09:54:23;39.88;;;19.50;;
30707;SDS011;17458;48.958;8.284;2023-02-15T09:57:24;38.10;;;19.52;;
30707;SDS011;17458;48.958;8.284;2023-02-15T10:03:32;38.45;;;21.60;;
30707;SDS011;17458;48.958;8.284;2023-02-15T10:06:24;39.33;;;22.38;;
30707;SDS011;17458;48.958;8.284;2023-02-15T10:09:28;38.80;;;21.80;;
30707;SDS011;17458;48.958;8.284;2023-02-15T10:22:34;40.58;;;21.45;;
30707;SDS011;17458;48.958;8.284;2023-02-15T10:28:05;40.33;;;21.67;;
30707;SDS011;17458;48.958;8.284;2023-02-15T10:30:54;42.10;;;23.42;;
30707;SDS011;17458;48.958;8.284;2023-02-15T10:49:17;110.32;;;29.35;;
30707;SDS011;17458;48.958;8.284;2023-02-15T10:52:08;57.97;;;25.33;;
30707;SDS011;17458;48.958;8.284;2023-02-15T10:58:22;49.95;;;25.23;;
30707;SDS011;17458;48.958;8.284;2023-02-15T11:07:02;54.50;;;26.42;;
30707;SDS011;17458;48.958;8.284;2023-02-15T11:10:05;47.35;;;22.80;;
30707;SDS011;17458;48.958;8.284;2023-02-15T11:13:04;50.97;;;23.55;;
30707;SDS011;17458;48.958;8.284;2023-02-15T11:15:53;50.10;;;25.33;;
30707;SDS011;17458;48.958;8.284;2023-02-15T11:18:49;43.30;;;23.65;;
30707;SDS011;17458;48.958;8.284;2023-02-15T11:21:40;47.50;;;23.52;;
30707;SDS011;17458;48.958;8.284;2023-02-15T11:24:29;47.80;;;22.65;;
30707;SDS011;17458;48.958;8.284;2023-02-15T11:30:06;49.92;;;22.92;;
30707;SDS011;17458;48.958;8.284;2023-02-15T11:32:57;39.63;;;21.90;;
30707;SDS011;17458;48.958;8.284;2023-02-15T11:35:50;37.92;;;20.77;;
30707;SDS011;17458;48.958;8.284;2023-02-15T11:38:49;41.92;;;19.20;;
30707;SDS011;17458;48.958;8.284;2023-02-15T11:41:41;35.72;;;19.73;;
30707;SDS011;17458;48.958;8.284;2023-02-15T11:44:41;36.72;;;19.38;;
30707;SDS011;17458;48.958;8.284;2023-02-15T11:47:34;35.53;;;19.42;;
30707;SDS011;17458;48.958;8.284;2023-02-15T11:50:22;34.40;;;18.17;;
30707;SDS011;17458;48.958;8.284;2023-02-15T11:53:10;36.40;;;20.08;;
30707;SDS011;17458;48.958;8.284;2023-02-15T11:55:57;36.65;;;20.63;;
30707;SDS011;17458;48.958;8.284;2023-02-15T11:58:46;41.72;;;19.50;;
30707;SDS011;17458;48.958;8.284;2023-02-15T12:01:35;34.38;;;20.60;;
30707;SDS011;17458;48.958;8.284;2023-02-15T12:04:24;35.15;;;19.25;;
30707;SDS011;17458;48.958;8.284;2023-02-15T12:07:14;37.65;;;19.55;;
30707;SDS011;17458;48.958;8.284;2023-02-15T12:13:18;36.05;;;20.88;;
30707;SDS011;17458;48.958;8.284;2023-02-15T12:16:06;35.70;;;20.20;;
30707;SDS011;17458;48.958;8.284;2023-02-15T12:18:56;39.10;;;21.45;;
30707;SDS011;17458;48.958;8.284;2023-02-15T12:21:43;40.35;;;22.70;;
30707;SDS011;17458;48.958;8.284;2023-02-15T12:24:33;36.92;;;20.33;;
30707;SDS011;17458;48.958;8.284;2023-02-15T12:27:23;39.00;;;22.00;;
30707;SDS011;17458;48.958;8.284;2023-02-15T12:30:30;38.75;;;23.35;;
30707;SDS011;17458;48.958;8.284;2023-02-15T12:36:17;37.00;;;21.67;;
30707;SDS011;17458;48.958;8.284;2023-02-15T12:41:59;50.40;;;24.00;;
30707;SDS011;17458;48.958;8.284;2023-02-15T12:45:00;37.75;;;21.15;;
30707;SDS011;17458;48.958;8.284;2023-02-15T12:47:46;40.38;;;22.70;;
30707;SDS011;17458;48.958;8.284;2023-02-15T12:50:52;41.53;;;22.73;;
30707;SDS011;17458;48.958;8.284;2023-02-15T12:53:51;39.38;;;22.05;;
30707;SDS011;17458;48.958;8.284;2023-02-15T12:56:35;40.03;;;21.90;;
30707;SDS011;17458;48.958;8.284;2023-02-15T12:59:19;37.08;;;20.20;;
30707;SDS011;17458;48.958;8.284;2023-02-15T13:02:05;36.92;;;21.73;;
30707;SDS011;17458;48.958;8.284;2023-02-15T13:07:58;41.38;;;22.40;;
30707;SDS011;17458;48.958;8.284;2023-02-15T13:10:58;39.50;;;23.13;;
30707;SDS011;17458;48.958;8.284;2023-02-15T13:13:51;41.92;;;22.67;;
30707;SDS011;17458;48.958;8.284;2023-02-15T13:16:38;45.08;;;22.67;;
30707;SDS011;17458;48.958;8.284;2023-02-15T13:22:41;37.35;;;20.65;;
30707;SDS011;17458;48.958;8.284;2023-02-15T13:25:29;36.42;;;20.27;;
30707;SDS011;17458;48.958;8.284;2023-02-15T13:28:24;40.30;;;21.88;;
30707;SDS011;17458;48.958;8.284;2023-02-15T13:31:19;38.97;;;21.70;;
30707;SDS011;17458;48.958;8.284;2023-02-15T13:37:03;37.60;;;21.98;;
30707;SDS011;17458;48.958;8.284;2023-02-15T13:46:30;36.47;;;21.95;;
30707;SDS011;17458;48.958;8.284;2023-02-15T13:52:56;45.97;;;25.70;;
30707;SDS011;17458;48.958;8.284;2023-02-15T13:55:57;44.63;;;23.27;;
30707;SDS011;17458;48.958;8.284;2023-02-15T13:58:58;44.90;;;23.70;;
30707;SDS011;17458;48.958;8.284;2023-02-15T14:01:55;39.80;;;22.67;;
30707;SDS011;17458;48.958;8.284;2023-02-15T14:20:25;41.35;;;22.73;;
30707;SDS011;17458;48.958;8.284;2023-02-15T14:29:20;35.50;;;21.17;;
30707;SDS011;17458;48.958;8.284;2023-02-15T14:32:13;38.97;;;20.45;;
30707;SDS011;17458;48.958;8.284;2023-02-15T14:35:04;37.13;;;20.13;;
30707;SDS011;17458;48.958;8.284;2023-02-15T14:38:18;35.13;;;20.17;;
30707;SDS011;17458;48.958;8.284;2023-02-15T14:41:35;34.10;;;21.63;;
30707;SDS011;17458;48.958;8.284;2023-02-15T14:44:29;37.53;;;21.25;;
30707;SDS011;17458;48.958;8.284;2023-02-15T14:47:26;33.25;;;20.48;;
30707;SDS011;17458;48.958;8.284;2023-02-15T14:50:35;38.05;;;20.20;;
30707;SDS011;17458;48.958;8.284;2023-02-15T14:56:17;36.30;;;21.73;;
30707;SDS011;17458;48.958;8.284;2023-02-15T14:59:14;31.83;;;20.27;;
30707;SDS011;17458;48.958;8.284;2023-02-15T15:07:47;32.63;;;19.23;;
30707;SDS011;17458;48.958;8.284;2023-02-15T15:16:25;35.70;;;21.73;;
30707;SDS011;17458;48.958;8.284;2023-02-15T15:22:32;36.97;;;19.90;;
30707;SDS011;17458;48.958;8.284;2023-02-15T15:29:01;36.60;;;20.65;;
30707;SDS011;17458;48.958;8.284;2023-02-15T15:31:50;34.38;;;20.90;;
30707;SDS011;17458;48.958;8.284;2023-02-15T15:34:43;40.17;;;21.60;;
30707;SDS011;17458;48.958;8.284;2023-02-15T15:40:42;31.30;;;18.80;;
30707;SDS011;17458;48.958;8.284;2023-02-15T15:49:31;35.15;;;20.67;;
30707;SDS011;17458;48.958;8.284;2023-02-15T15:52:21;35.55;;;20.40;;
30707;SDS011;17458;48.958;8.284;2023-02-15T15:55:14;37.90;;;20.35;;
30707;SDS011;17458;48.958;8.284;2023-02-15T15:58:03;34.20;;;20.52;;
30707;SDS011;17458;48.958;8.284;2023-02-15T16:01:09;35.17;;;22.30;;
30707;SDS011;17458;48.958;8.284;2023-02-15T16:03:58;38.78;;;22.63;;
30707;SDS011;17458;48.958;8.284;2023-02-15T16:06:42;29.58;;;19.45;;
30707;SDS011;17458;48.958;8.284;2023-02-15T16:09:28;40.72;;;21.75;;
30707;SDS011;17458;48.958;8.284;2023-02-15T16:12:16;36.88;;;21.15;;
30707;SDS011;17458;48.958;8.284;2023-02-15T16:15:13;38.75;;;21.88;;
30707;SDS011;17458;48.958;8.284;2023-02-15T16:18:04;35.97;;;21.73;;
30707;SDS011;17458;48.958;8.284;2023-02-15T16:21:12;34.75;;;21.23;;
30707;SDS011;17458;48.958;8.284;2023-02-15T16:30:21;42.10;;;24.67;;
30707;SDS011;17458;48.958;8.284;2023-02-15T16:33:15;34.20;;;21.90;;
30707;SDS011;17458;48.958;8.284;2023-02-15T16:36:00;38.45;;;22.13;;
30707;SDS011;17458;48.958;8.284;2023-02-15T16:41:49;38.53;;;22.95;;
30707;SDS011;17458;48.958;8.284;2023-02-15T16:44:39;39.50;;;24.00;;
30707;SDS011;17458;48.958;8.284;2023-02-15T16:47:24;45.58;;;28.02;;
30707;SDS011;17458;48.958;8.284;2023-02-15T16:50:18;58.17;;;32.42;;
30707;SDS011;17458;48.958;8.284;2023-02-15T16:53:13;51.13;;;29.35;;
30707;SDS011;17458;48.958;8.284;2023-02-15T16:56:03;49.90;;;28.48;;
30707;SDS011;17458;48.958;8.284;2023-02-15T16:58:49;44.25;;;27.60;;
30707;SDS011;17458;48.958;8.284;2023-02-15T17:01:36;43.05;;;25.20;;
30707;SDS011;17458;48.958;8.284;2023-02-15T17:09:57;44.63;;;24.60;;
30707;SDS011;17458;48.958;8.284;2023-02-15T17:12:52;44.60;;;25.88;;
30707;SDS011;17458;48.958;8.284;2023-02-15T17:15:40;39.10;;;24.00;;
30707;SDS011;17458;48.958;8.284;2023-02-15T17:18:30;37.60;;;24.48;;
30707;SDS011;17458;48.958;8.284;2023-02-15T17:21:21;36.05;;;21.98;;
30707;SDS011;17458;48.958;8.284;2023-02-15T17:24:23;37.05;;;22.63;;
30707;SDS011;17458;48.958;8.284;2023-02-15T17:27:20;40.58;;;23.58;;
30707;SDS011;17458;48.958;8.284;2023-02-15T17:30:15;39.92;;;25.33;;
30707;SDS011;17458;48.958;8.284;2023-02-15T17:33:17;38.05;;;21.45;;
30707;SDS011;17458;48.958;8.284;2023-02-15T17:36:21;35.28;;;19.75;;
30707;SDS011;17458;48.958;8.284;2023-02-15T17:39:20;46.15;;;22.73;;
30707;SDS011;17458;48.958;8.284;2023-02-15T17:42:06;37.83;;;22.23;;
30707;SDS011;17458;48.958;8.284;2023-02-15T17:44:50;42.05;;;23.92;;
30707;SDS011;17458;48.958;8.284;2023-02-15T17:47:37;42.45;;;22.27;;
30707;SDS011;17458;48.958;8.284;2023-02-15T17:50:25;37.47;;;22.10;;
30707;SDS011;17458;48.958;8.284;2023-02-15T17:53:10;33.63;;;21.60;;
30707;SDS011;17458;48.958;8.284;2023-02-15T17:55:55;32.80;;;21.20;;
30707;SDS011;17458;48.958;8.284;2023-02-15T17:58:40;36.55;;;20.27;;
30707;SDS011;17458;48.958;8.284;2023-02-15T18:01:24;37.67;;;22.77;;
30707;SDS011;17458;48.958;8.284;2023-02-15T18:04:27;66.30;;;29.58;;
30707;SDS011;17458;48.958;8.284;2023-02-15T18:07:30;65.45;;;31.27;;
30707;SDS011;17458;48.958;8.284;2023-02-15T18:10:32;38.92;;;23.85;;
30707;SDS011;17458;48.958;8.284;2023-02-15T18:13:36;38.08;;;22.77;;
30707;SDS011;17458;48.958;8.284;2023-02-15T18:16:23;40.70;;;22.88;;
30707;SDS011;17458;48.958;8.284;2023-02-15T18:19:16;51.35;;;26.58;;
30707;SDS011;17458;48.958;8.284;2023-02-15T18:22:13;45.83;;;24.60;;
30707;SDS011;17458;48.958;8.284;2023-02-15T18:24:59;40.03;;;21.42;;
30707;SDS011;17458;48.958;8.284;2023-02-15T18:27:44;34.20;;;21.98;;
30707;SDS011;17458;48.958;8.284;2023-02-15T18:30:29;41.25;;;22.40;;
30707;SDS011;17458;48.958;8.284;2023-02-15T18:33:23;42.00;;;22.63;;
30707;SDS011;17458;48.958;8.284;2023-02-15T18:36:16;39.13;;;23.10;;
30707;SDS011;17458;48.958;8.284;2023-02-15T18:39:05;39.07;;;22.40;;
30707;SDS011;17458;48.958;8.284;2023-02-15T18:45:14;40.55;;;22.55;;
30707;SDS011;17458;48.958;8.284;2023-02-15T18:47:58;38.90;;;22.00;;
30707;SDS011;17458;48.958;8.284;2023-02-15T18:50:43;33.97;;;21.40;;
30707;SDS011;17458;48.958;8.284;2023-02-15T18:53:27;32.70;;;19.57;;
30707;SDS011;17458;48.958;8.284;2023-02-15T18:56:16;37.37;;;21.73;;
30707;SDS011;17458;48.958;8.284;2023-02-15T18:59:02;44.83;;;23.45;;
30707;SDS011;17458;48.958;8.284;2023-02-15T19:01:46;43.60;;;23.83;;
30707;SDS011;17458;48.958;8.284;2023-02-15T19:04:31;37.33;;;22.10;;
30707;SDS011;17458;48.958;8.284;2023-02-15T19:07:20;36.13;;;22.17;;
30707;SDS011;17458;48.958;8.284;2023-02-15T19:10:16;41.30;;;24.40;;
30707;SDS011;17458;48.958;8.284;2023-02-15T19:13:04;56.83;;;24.30;;
30707;SDS011;17458;48.958;8.284;2023-02-15T19:15:52;43.47;;;26.08;;
30707;SDS011;17458;48.958;8.284;2023-02-15T19:18:37;141.37;;;31.53;;
30707;SDS011;17458;48.958;8.284;2023-02-15T19:21:22;155.73;;;30.40;;